sensor_id;sensor_type;location;lat;lon;timestamp;P1;durP1;ratioP1;P2;durP2;ratioP2
3747;SDS011;1889;50.058;8.688;2022-08-20T00:01:51;9.03;;;5.30;;
3747;SDS011;1889;50.058;8.688;2022-08-20T00:04:20;5.23;;;4.80;;
3747;SDS011;1889;50.058;8.688;2022-08-20T00:06:50;6.13;;;5.47;;
3747;SDS011;1889;50.058;8.688;2022-08-20T00:09:19;5.90;;;5.33;;
3747;SDS011;1889;50.058;8.688;2022-08-20T00:11:48;7.37;;;5.07;;
3747;SDS011;1889;50.058;8.688;2022-08-20T00:14:17;5.37;;;4.80;;
3747;SDS011;1889;50.058;8.688;2022-08-20T00:16:46;5.63;;;5.10;;
3747;SDS011;1889;50.058;8.688;2022-08-20T00:19:16;5.97;;;5.23;;
3747;SDS011;1889;50.058;8.688;2022-08-20T00:21:45;6.00;;;5.20;;
3747;SDS011;1889;50.058;8.688;2022-08-20T00:24:14;6.63;;;5.30;;
3747;SDS011;1889;50.058;8.688;2022-08-20T00:26:43;6.70;;;4.63;;
3747;SDS011;1889;50.058;8.688;2022-08-20T00:29:12;5.67;;;4.90;;
3747;SDS011;1889;50.058;8.688;2022-08-20T00:31:42;6.77;;;5.30;;
3747;SDS011;1889;50.058;8.688;2022-08-20T00:34:11;6.83;;;5.33;;
3747;SDS011;1889;50.058;8.688;2022-08-20T00:36:40;5.10;;;4.60;;
3747;SDS011;1889;50.058;8.688;2022-08-20T00:39:09;5.70;;;5.07;;
3747;SDS011;1889;50.058;8.688;2022-08-20T00:41:38;7.40;;;4.70;;
3747;SDS011;1889;50.058;8.688;2022-08-20T00:44:09;6.37;;;5.33;;
3747;SDS011;1889;50.058;8.688;2022-08-20T00:46:40;5.13;;;4.63;;
3747;SDS011;1889;50.058;8.688;2022-08-20T00:49:20;5.70;;;4.80;;
3747;SDS011;1889;50.058;8.688;2022-08-20T00:51:47;6.90;;;4.67;;
3747;SDS011;1889;50.058;8.688;2022-08-20T00:54:21;6.43;;;5.10;;
3747;SDS011;1889;50.058;8.688;2022-08-20T00:56:57;6.00;;;5.20;;
3747;SDS011;1889;50.058;8.688;2022-08-20T00:59:30;5.40;;;4.70;;
3747;SDS011;1889;50.058;8.688;2022-08-20T01:02:00;4.93;;;4.50;;
3747;SDS011;1889;50.058;8.688;2022-08-20T01:04:32;5.97;;;4.30;;
3747;SDS011;1889;50.058;8.688;2022-08-20T01:07:04;6.27;;;4.87;;
3747;SDS011;1889;50.058;8.688;2022-08-20T01:09:34;5.27;;;4.87;;
3747;SDS011;1889;50.058;8.688;2022-08-20T01:12:05;5.83;;;4.50;;
3747;SDS011;1889;50.058;8.688;2022-08-20T01:14:36;5.37;;;4.53;;
3747;SDS011;1889;50.058;8.688;2022-08-20T01:17:07;7.57;;;5.17;;
3747;SDS011;1889;50.058;8.688;2022-08-20T01:19:42;5.43;;;4.93;;
3747;SDS011;1889;50.058;8.688;2022-08-20T01:22:14;5.23;;;4.80;;
3747;SDS011;1889;50.058;8.688;2022-08-20T01:25:05;7.53;;;4.63;;
3747;SDS011;1889;50.058;8.688;2022-08-20T01:27:35;5.80;;;4.67;;
3747;SDS011;1889;50.058;8.688;2022-08-20T01:30:06;5.70;;;4.83;;
3747;SDS011;1889;50.058;8.688;2022-08-20T01:32:37;6.17;;;4.63;;
3747;SDS011;1889;50.058;8.688;2022-08-20T01:35:07;7.13;;;5.10;;
3747;SDS011;1889;50.058;8.688;2022-08-20T01:37:37;6.53;;;4.20;;
3747;SDS011;1889;50.058;8.688;2022-08-20T01:40:06;5.87;;;4.67;;
3747;SDS011;1889;50.058;8.688;2022-08-20T01:42:40;5.87;;;5.27;;
3747;SDS011;1889;50.058;8.688;2022-08-20T01:45:12;5.53;;;4.83;;
3747;SDS011;1889;50.058;8.688;2022-08-20T01:47:41;6.00;;;4.67;;
3747;SDS011;1889;50.058;8.688;2022-08-20T01:50:15;7.70;;;4.90;;
3747;SDS011;1889;50.058;8.688;2022-08-20T01:52:47;6.60;;;4.73;;
3747;SDS011;1889;50.058;8.688;2022-08-20T01:55:17;5.13;;;4.30;;
3747;SDS011;1889;50.058;8.688;2022-08-20T01:57:46;6.40;;;4.73;;
3747;SDS011;1889;50.058;8.688;2022-08-20T02:00:16;5.67;;;4.80;;
3747;SDS011;1889;50.058;8.688;2022-08-20T02:02:46;5.17;;;4.67;;
3747;SDS011;1889;50.058;8.688;2022-08-20T02:05:16;5.20;;;4.70;;
3747;SDS011;1889;50.058;8.688;2022-08-20T02:07:46;5.93;;;4.70;;
3747;SDS011;1889;50.058;8.688;2022-08-20T02:10:17;5.17;;;4.67;;
3747;SDS011;1889;50.058;8.688;2022-08-20T02:12:46;4.90;;;4.40;;
3747;SDS011;1889;50.058;8.688;2022-08-20T02:15:15;6.23;;;4.80;;
3747;SDS011;1889;50.058;8.688;2022-08-20T02:17:44;5.03;;;4.53;;
3747;SDS011;1889;50.058;8.688;2022-08-20T02:20:16;5.27;;;4.53;;
3747;SDS011;1889;50.058;8.688;2022-08-20T02:22:51;5.70;;;5.10;;
3747;SDS011;1889;50.058;8.688;2022-08-20T02:25:22;6.57;;;4.53;;
3747;SDS011;1889;50.058;8.688;2022-08-20T02:27:54;5.63;;;4.57;;
3747;SDS011;1889;50.058;8.688;2022-08-20T02:30:26;6.70;;;4.97;;
3747;SDS011;1889;50.058;8.688;2022-08-20T02:32:56;5.97;;;4.53;;
3747;SDS011;1889;50.058;8.688;2022-08-20T02:35:26;6.93;;;4.97;;
3747;SDS011;1889;50.058;8.688;2022-08-20T02:37:56;5.50;;;4.57;;
3747;SDS011;1889;50.058;8.688;2022-08-20T02:40:26;6.93;;;4.73;;
3747;SDS011;1889;50.058;8.688;2022-08-20T02:42:56;5.87;;;5.37;;
3747;SDS011;1889;50.058;8.688;2022-08-20T02:45:27;5.00;;;4.50;;
3747;SDS011;1889;50.058;8.688;2022-08-20T02:48:00;5.27;;;4.77;;
3747;SDS011;1889;50.058;8.688;2022-08-20T02:50:35;4.63;;;4.23;;
3747;SDS011;1889;50.058;8.688;2022-08-20T02:52:59;4.80;;;4.40;;
3747;SDS011;1889;50.058;8.688;2022-08-20T02:55:28;4.67;;;4.20;;
3747;SDS011;1889;50.058;8.688;2022-08-20T02:57:58;5.30;;;4.80;;
3747;SDS011;1889;50.058;8.688;2022-08-20T03:00:28;6.30;;;4.43;;
3747;SDS011;1889;50.058;8.688;2022-08-20T03:03:00;4.50;;;4.10;;
3747;SDS011;1889;50.058;8.688;2022-08-20T03:05:30;5.30;;;4.27;;
3747;SDS011;1889;50.058;8.688;2022-08-20T03:07:59;7.27;;;4.50;;
3747;SDS011;1889;50.058;8.688;2022-08-20T03:10:29;4.60;;;4.17;;
3747;SDS011;1889;50.058;8.688;2022-08-20T03:13:01;5.53;;;4.73;;
3747;SDS011;1889;50.058;8.688;2022-08-20T03:15:32;5.03;;;4.53;;
3747;SDS011;1889;50.058;8.688;2022-08-20T03:18:01;5.10;;;4.00;;
3747;SDS011;1889;50.058;8.688;2022-08-20T03:20:30;5.00;;;4.50;;
3747;SDS011;1889;50.058;8.688;2022-08-20T03:22:59;4.90;;;4.43;;
3747;SDS011;1889;50.058;8.688;2022-08-20T03:25:29;4.50;;;4.07;;
3747;SDS011;1889;50.058;8.688;2022-08-20T03:27:59;4.33;;;3.93;;
3747;SDS011;1889;50.058;8.688;2022-08-20T03:30:28;5.03;;;4.53;;
3747;SDS011;1889;50.058;8.688;2022-08-20T03:32:57;4.00;;;3.70;;
3747;SDS011;1889;50.058;8.688;2022-08-20T03:35:27;4.67;;;4.03;;
3747;SDS011;1889;50.058;8.688;2022-08-20T03:37:57;6.43;;;4.10;;
3747;SDS011;1889;50.058;8.688;2022-08-20T03:40:29;4.40;;;4.00;;
3747;SDS011;1889;50.058;8.688;2022-08-20T03:42:59;6.50;;;3.97;;
3747;SDS011;1889;50.058;8.688;2022-08-20T03:45:28;5.87;;;4.50;;
3747;SDS011;1889;50.058;8.688;2022-08-20T03:47:58;5.07;;;4.00;;
3747;SDS011;1889;50.058;8.688;2022-08-20T03:50:28;5.80;;;3.83;;
3747;SDS011;1889;50.058;8.688;2022-08-20T03:52:58;3.73;;;3.43;;
3747;SDS011;1889;50.058;8.688;2022-08-20T03:55:29;5.63;;;4.10;;
3747;SDS011;1889;50.058;8.688;2022-08-20T03:58:00;4.90;;;4.50;;
3747;SDS011;1889;50.058;8.688;2022-08-20T04:00:33;5.20;;;4.10;;
3747;SDS011;1889;50.058;8.688;2022-08-20T04:03:04;4.40;;;4.10;;
3747;SDS011;1889;50.058;8.688;2022-08-20T04:05:35;4.57;;;4.13;;
3747;SDS011;1889;50.058;8.688;2022-08-20T04:08:08;4.13;;;3.80;;
3747;SDS011;1889;50.058;8.688;2022-08-20T04:10:39;5.13;;;4.30;;
3747;SDS011;1889;50.058;8.688;2022-08-20T04:13:08;4.30;;;3.90;;
3747;SDS011;1889;50.058;8.688;2022-08-20T04:15:38;4.10;;;3.80;;
3747;SDS011;1889;50.058;8.688;2022-08-20T04:18:07;4.70;;;4.30;;
3747;SDS011;1889;50.058;8.688;2022-08-20T04:20:39;4.70;;;4.30;;
3747;SDS011;1889;50.058;8.688;2022-08-20T04:23:10;4.57;;;4.17;;
3747;SDS011;1889;50.058;8.688;2022-08-20T04:25:40;4.47;;;4.07;;
3747;SDS011;1889;50.058;8.688;2022-08-20T04:28:16;4.63;;;4.03;;
3747;SDS011;1889;50.058;8.688;2022-08-20T04:30:45;4.43;;;4.03;;
3747;SDS011;1889;50.058;8.688;2022-08-20T04:33:14;4.37;;;4.07;;
3747;SDS011;1889;50.058;8.688;2022-08-20T04:35:44;4.67;;;4.27;;
3747;SDS011;1889;50.058;8.688;2022-08-20T04:38:14;5.07;;;4.50;;
3747;SDS011;1889;50.058;8.688;2022-08-20T04:40:45;4.73;;;4.07;;
3747;SDS011;1889;50.058;8.688;2022-08-20T04:43:20;4.73;;;3.90;;
3747;SDS011;1889;50.058;8.688;2022-08-20T04:45:51;3.90;;;3.60;;
3747;SDS011;1889;50.058;8.688;2022-08-20T04:48:21;5.03;;;4.60;;
3747;SDS011;1889;50.058;8.688;2022-08-20T04:50:51;5.00;;;4.60;;
3747;SDS011;1889;50.058;8.688;2022-08-20T04:53:22;5.63;;;4.47;;
3747;SDS011;1889;50.058;8.688;2022-08-20T04:55:54;4.63;;;4.33;;
3747;SDS011;1889;50.058;8.688;2022-08-20T04:58:27;6.13;;;4.30;;
3747;SDS011;1889;50.058;8.688;2022-08-20T05:01:01;5.27;;;4.43;;
3747;SDS011;1889;50.058;8.688;2022-08-20T05:03:31;4.67;;;4.27;;
3747;SDS011;1889;50.058;8.688;2022-08-20T05:06:07;5.00;;;4.47;;
3747;SDS011;1889;50.058;8.688;2022-08-20T05:08:38;5.33;;;4.87;;
3747;SDS011;1889;50.058;8.688;2022-08-20T05:11:08;6.47;;;4.47;;
3747;SDS011;1889;50.058;8.688;2022-08-20T05:13:37;4.93;;;4.47;;
3747;SDS011;1889;50.058;8.688;2022-08-20T05:16:07;7.00;;;4.50;;
3747;SDS011;1889;50.058;8.688;2022-08-20T05:18:36;5.10;;;4.20;;
3747;SDS011;1889;50.058;8.688;2022-08-20T05:21:05;4.87;;;4.47;;
3747;SDS011;1889;50.058;8.688;2022-08-20T05:23:35;5.03;;;4.63;;
3747;SDS011;1889;50.058;8.688;2022-08-20T05:26:08;5.40;;;4.43;;
3747;SDS011;1889;50.058;8.688;2022-08-20T05:28:39;5.23;;;4.83;;
3747;SDS011;1889;50.058;8.688;2022-08-20T05:31:09;8.23;;;4.80;;
3747;SDS011;1889;50.058;8.688;2022-08-20T05:33:38;4.97;;;4.63;;
3747;SDS011;1889;50.058;8.688;2022-08-20T05:36:07;5.03;;;4.63;;
3747;SDS011;1889;50.058;8.688;2022-08-20T05:38:36;5.83;;;5.33;;
3747;SDS011;1889;50.058;8.688;2022-08-20T05:41:05;5.77;;;5.37;;
3747;SDS011;1889;50.058;8.688;2022-08-20T05:43:35;6.77;;;6.27;;
3747;SDS011;1889;50.058;8.688;2022-08-20T05:46:05;8.27;;;7.47;;
3747;SDS011;1889;50.058;8.688;2022-08-20T05:48:34;7.77;;;7.07;;
3747;SDS011;1889;50.058;8.688;2022-08-20T05:51:03;8.33;;;7.63;;
3747;SDS011;1889;50.058;8.688;2022-08-20T05:53:32;8.47;;;7.77;;
3747;SDS011;1889;50.058;8.688;2022-08-20T05:56:02;8.50;;;7.77;;
3747;SDS011;1889;50.058;8.688;2022-08-20T05:58:31;8.70;;;8.00;;
3747;SDS011;1889;50.058;8.688;2022-08-20T06:01:00;9.33;;;8.03;;
3747;SDS011;1889;50.058;8.688;2022-08-20T06:03:29;8.97;;;8.13;;
3747;SDS011;1889;50.058;8.688;2022-08-20T06:06:16;8.23;;;7.63;;
3747;SDS011;1889;50.058;8.688;2022-08-20T06:08:46;8.60;;;7.90;;
3747;SDS011;1889;50.058;8.688;2022-08-20T06:11:15;8.50;;;7.77;;
3747;SDS011;1889;50.058;8.688;2022-08-20T06:13:44;8.87;;;8.10;;
3747;SDS011;1889;50.058;8.688;2022-08-20T06:16:14;9.67;;;8.87;;
3747;SDS011;1889;50.058;8.688;2022-08-20T06:18:43;9.97;;;8.97;;
3747;SDS011;1889;50.058;8.688;2022-08-20T06:21:12;9.23;;;8.53;;
3747;SDS011;1889;50.058;8.688;2022-08-20T06:23:42;9.33;;;8.53;;
3747;SDS011;1889;50.058;8.688;2022-08-20T06:26:11;9.67;;;8.87;;
3747;SDS011;1889;50.058;8.688;2022-08-20T06:28:40;8.73;;;7.93;;
3747;SDS011;1889;50.058;8.688;2022-08-20T06:31:09;8.23;;;7.53;;
3747;SDS011;1889;50.058;8.688;2022-08-20T06:33:38;8.60;;;7.80;;
3747;SDS011;1889;50.058;8.688;2022-08-20T06:36:08;9.13;;;8.10;;
3747;SDS011;1889;50.058;8.688;2022-08-20T06:38:37;8.33;;;7.63;;
3747;SDS011;1889;50.058;8.688;2022-08-20T06:41:06;8.60;;;7.80;;
3747;SDS011;1889;50.058;8.688;2022-08-20T06:43:35;8.83;;;8.03;;
3747;SDS011;1889;50.058;8.688;2022-08-20T06:46:04;8.90;;;8.20;;
3747;SDS011;1889;50.058;8.688;2022-08-20T06:48:33;8.87;;;8.17;;
3747;SDS011;1889;50.058;8.688;2022-08-20T06:51:03;8.27;;;7.57;;
3747;SDS011;1889;50.058;8.688;2022-08-20T06:53:32;8.43;;;7.63;;
3747;SDS011;1889;50.058;8.688;2022-08-20T06:56:01;7.70;;;7.00;;
3747;SDS011;1889;50.058;8.688;2022-08-20T06:58:32;7.30;;;6.67;;
3747;SDS011;1889;50.058;8.688;2022-08-20T07:01:02;7.37;;;6.77;;
3747;SDS011;1889;50.058;8.688;2022-08-20T07:03:31;7.37;;;6.83;;
3747;SDS011;1889;50.058;8.688;2022-08-20T07:06:00;8.33;;;6.90;;
3747;SDS011;1889;50.058;8.688;2022-08-20T07:08:29;7.50;;;7.00;;
3747;SDS011;1889;50.058;8.688;2022-08-20T07:10:58;8.10;;;7.47;;
3747;SDS011;1889;50.058;8.688;2022-08-20T07:13:27;14.43;;;7.23;;
3747;SDS011;1889;50.058;8.688;2022-08-20T07:15:57;7.10;;;6.50;;
3747;SDS011;1889;50.058;8.688;2022-08-20T07:18:26;8.40;;;7.77;;
3747;SDS011;1889;50.058;8.688;2022-08-20T07:20:55;7.90;;;7.30;;
3747;SDS011;1889;50.058;8.688;2022-08-20T07:23:25;7.23;;;6.73;;
3747;SDS011;1889;50.058;8.688;2022-08-20T07:26:00;6.70;;;6.20;;
3747;SDS011;1889;50.058;8.688;2022-08-20T07:28:29;7.00;;;6.50;;
3747;SDS011;1889;50.058;8.688;2022-08-20T07:30:58;9.33;;;6.07;;
3747;SDS011;1889;50.058;8.688;2022-08-20T07:33:45;6.93;;;6.43;;
3747;SDS011;1889;50.058;8.688;2022-08-20T07:36:14;6.37;;;5.77;;
3747;SDS011;1889;50.058;8.688;2022-08-20T07:38:44;8.50;;;6.33;;
3747;SDS011;1889;50.058;8.688;2022-08-20T07:41:14;6.87;;;6.20;;
3747;SDS011;1889;50.058;8.688;2022-08-20T07:43:44;6.73;;;6.23;;
3747;SDS011;1889;50.058;8.688;2022-08-20T07:46:15;7.40;;;6.70;;
3747;SDS011;1889;50.058;8.688;2022-08-20T07:48:46;6.93;;;6.33;;
3747;SDS011;1889;50.058;8.688;2022-08-20T07:51:17;7.53;;;6.93;;
3747;SDS011;1889;50.058;8.688;2022-08-20T07:53:49;6.97;;;6.47;;
3747;SDS011;1889;50.058;8.688;2022-08-20T07:56:20;9.67;;;6.63;;
3747;SDS011;1889;50.058;8.688;2022-08-20T07:58:51;8.20;;;7.50;;
3747;SDS011;1889;50.058;8.688;2022-08-20T08:01:25;8.10;;;7.40;;
3747;SDS011;1889;50.058;8.688;2022-08-20T08:03:56;11.73;;;7.67;;
3747;SDS011;1889;50.058;8.688;2022-08-20T08:06:27;9.10;;;8.20;;
3747;SDS011;1889;50.058;8.688;2022-08-20T08:09:02;9.47;;;8.67;;
3747;SDS011;1889;50.058;8.688;2022-08-20T08:11:33;10.97;;;7.40;;
3747;SDS011;1889;50.058;8.688;2022-08-20T08:14:05;9.27;;;8.03;;
3747;SDS011;1889;50.058;8.688;2022-08-20T08:16:36;7.27;;;6.57;;
3747;SDS011;1889;50.058;8.688;2022-08-20T08:19:06;7.50;;;6.90;;
3747;SDS011;1889;50.058;8.688;2022-08-20T08:21:39;8.63;;;7.83;;
3747;SDS011;1889;50.058;8.688;2022-08-20T08:24:09;6.43;;;5.83;;
3747;SDS011;1889;50.058;8.688;2022-08-20T08:26:38;6.13;;;5.63;;
3747;SDS011;1889;50.058;8.688;2022-08-20T08:29:07;6.37;;;5.87;;
3747;SDS011;1889;50.058;8.688;2022-08-20T08:31:38;6.50;;;6.00;;
3747;SDS011;1889;50.058;8.688;2022-08-20T08:34:08;6.73;;;6.03;;
3747;SDS011;1889;50.058;8.688;2022-08-20T08:36:38;6.87;;;6.37;;
3747;SDS011;1889;50.058;8.688;2022-08-20T08:39:08;7.40;;;6.50;;
3747;SDS011;1889;50.058;8.688;2022-08-20T08:41:41;7.57;;;6.97;;
3747;SDS011;1889;50.058;8.688;2022-08-20T08:44:21;7.83;;;7.07;;
3747;SDS011;1889;50.058;8.688;2022-08-20T08:46:59;7.17;;;6.50;;
3747;SDS011;1889;50.058;8.688;2022-08-20T08:49:26;7.93;;;7.23;;
3747;SDS011;1889;50.058;8.688;2022-08-20T08:51:58;6.17;;;5.57;;
3747;SDS011;1889;50.058;8.688;2022-08-20T08:54:33;6.60;;;6.00;;
3747;SDS011;1889;50.058;8.688;2022-08-20T08:57:03;6.17;;;5.67;;
3747;SDS011;1889;50.058;8.688;2022-08-20T08:59:34;6.27;;;5.40;;
3747;SDS011;1889;50.058;8.688;2022-08-20T09:02:04;6.07;;;5.47;;
3747;SDS011;1889;50.058;8.688;2022-08-20T09:04:37;9.27;;;5.80;;
3747;SDS011;1889;50.058;8.688;2022-08-20T09:07:07;6.13;;;5.43;;
3747;SDS011;1889;50.058;8.688;2022-08-20T09:09:39;5.73;;;5.23;;
3747;SDS011;1889;50.058;8.688;2022-08-20T09:12:17;5.27;;;4.77;;
3747;SDS011;1889;50.058;8.688;2022-08-20T09:14:44;4.73;;;4.33;;
3747;SDS011;1889;50.058;8.688;2022-08-20T09:17:14;4.73;;;4.33;;
3747;SDS011;1889;50.058;8.688;2022-08-20T09:19:45;4.10;;;3.67;;
3747;SDS011;1889;50.058;8.688;2022-08-20T09:22:17;5.10;;;4.30;;
3747;SDS011;1889;50.058;8.688;2022-08-20T09:24:48;5.77;;;4.13;;
3747;SDS011;1889;50.058;8.688;2022-08-20T09:27:18;6.20;;;3.37;;
3747;SDS011;1889;50.058;8.688;2022-08-20T09:29:47;4.23;;;3.90;;
3747;SDS011;1889;50.058;8.688;2022-08-20T09:32:17;3.30;;;3.00;;
3747;SDS011;1889;50.058;8.688;2022-08-20T09:34:50;3.23;;;3.03;;
3747;SDS011;1889;50.058;8.688;2022-08-20T09:37:22;2.87;;;2.63;;
3747;SDS011;1889;50.058;8.688;2022-08-20T09:39:54;4.27;;;3.17;;
3747;SDS011;1889;50.058;8.688;2022-08-20T09:42:25;3.30;;;3.00;;
3747;SDS011;1889;50.058;8.688;2022-08-20T09:44:56;3.20;;;3.00;;
3747;SDS011;1889;50.058;8.688;2022-08-20T09:47:26;2.73;;;2.57;;
3747;SDS011;1889;50.058;8.688;2022-08-20T09:49:55;2.87;;;2.67;;
3747;SDS011;1889;50.058;8.688;2022-08-20T09:52:26;3.37;;;3.07;;
3747;SDS011;1889;50.058;8.688;2022-08-20T09:55:04;3.30;;;2.97;;
3747;SDS011;1889;50.058;8.688;2022-08-20T09:57:49;4.60;;;2.40;;
3747;SDS011;1889;50.058;8.688;2022-08-20T10:00:21;2.97;;;2.73;;
3747;SDS011;1889;50.058;8.688;2022-08-20T10:02:50;2.63;;;2.43;;
3747;SDS011;1889;50.058;8.688;2022-08-20T10:05:19;2.63;;;2.07;;
3747;SDS011;1889;50.058;8.688;2022-08-20T10:07:48;1.73;;;1.63;;
3747;SDS011;1889;50.058;8.688;2022-08-20T10:10:17;2.20;;;2.00;;
3747;SDS011;1889;50.058;8.688;2022-08-20T10:12:47;2.53;;;1.60;;
3747;SDS011;1889;50.058;8.688;2022-08-20T10:15:16;2.10;;;2.00;;
3747;SDS011;1889;50.058;8.688;2022-08-20T10:17:45;1.90;;;1.80;;
3747;SDS011;1889;50.058;8.688;2022-08-20T10:20:14;3.00;;;1.87;;
3747;SDS011;1889;50.058;8.688;2022-08-20T10:22:44;2.20;;;1.60;;
3747;SDS011;1889;50.058;8.688;2022-08-20T10:25:13;1.73;;;1.60;;
3747;SDS011;1889;50.058;8.688;2022-08-20T10:27:43;1.40;;;1.30;;
3747;SDS011;1889;50.058;8.688;2022-08-20T10:30:12;1.60;;;1.50;;
3747;SDS011;1889;50.058;8.688;2022-08-20T10:32:43;1.23;;;1.20;;
3747;SDS011;1889;50.058;8.688;2022-08-20T10:35:12;1.50;;;1.40;;
3747;SDS011;1889;50.058;8.688;2022-08-20T10:37:41;1.57;;;1.47;;
3747;SDS011;1889;50.058;8.688;2022-08-20T10:40:11;2.10;;;1.23;;
3747;SDS011;1889;50.058;8.688;2022-08-20T10:42:48;1.37;;;1.30;;
3747;SDS011;1889;50.058;8.688;2022-08-20T10:45:13;1.80;;;1.27;;
3747;SDS011;1889;50.058;8.688;2022-08-20T10:47:43;1.43;;;1.33;;
3747;SDS011;1889;50.058;8.688;2022-08-20T10:50:14;3.47;;;1.50;;
3747;SDS011;1889;50.058;8.688;2022-08-20T10:52:45;1.60;;;1.50;;
3747;SDS011;1889;50.058;8.688;2022-08-20T10:55:14;1.33;;;1.23;;
3747;SDS011;1889;50.058;8.688;2022-08-20T10:57:44;1.50;;;1.20;;
3747;SDS011;1889;50.058;8.688;2022-08-20T11:00:13;1.07;;;1.07;;
3747;SDS011;1889;50.058;8.688;2022-08-20T11:02:46;1.67;;;1.33;;
3747;SDS011;1889;50.058;8.688;2022-08-20T11:05:18;1.63;;;1.53;;
3747;SDS011;1889;50.058;8.688;2022-08-20T11:07:47;1.17;;;1.07;;
3747;SDS011;1889;50.058;8.688;2022-08-20T11:10:16;1.63;;;1.30;;
3747;SDS011;1889;50.058;8.688;2022-08-20T11:12:45;1.00;;;1.00;;
3747;SDS011;1889;50.058;8.688;2022-08-20T11:15:15;1.20;;;1.00;;
3747;SDS011;1889;50.058;8.688;2022-08-20T11:17:44;1.17;;;1.13;;
3747;SDS011;1889;50.058;8.688;2022-08-20T11:20:14;1.03;;;1.03;;
3747;SDS011;1889;50.058;8.688;2022-08-20T11:22:45;1.30;;;1.10;;
3747;SDS011;1889;50.058;8.688;2022-08-20T11:25:14;1.10;;;1.10;;
3747;SDS011;1889;50.058;8.688;2022-08-20T11:27:45;1.20;;;1.10;;
3747;SDS011;1889;50.058;8.688;2022-08-20T11:30:17;1.30;;;1.20;;
3747;SDS011;1889;50.058;8.688;2022-08-20T11:32:47;2.83;;;1.13;;
3747;SDS011;1889;50.058;8.688;2022-08-20T11:35:16;1.00;;;1.00;;
3747;SDS011;1889;50.058;8.688;2022-08-20T11:37:47;1.23;;;1.10;;
3747;SDS011;1889;50.058;8.688;2022-08-20T11:40:17;1.77;;;0.87;;
3747;SDS011;1889;50.058;8.688;2022-08-20T11:42:46;0.80;;;0.80;;
3747;SDS011;1889;50.058;8.688;2022-08-20T11:45:15;1.17;;;1.07;;
3747;SDS011;1889;50.058;8.688;2022-08-20T11:47:44;0.60;;;0.60;;
3747;SDS011;1889;50.058;8.688;2022-08-20T11:50:15;0.67;;;0.67;;
3747;SDS011;1889;50.058;8.688;2022-08-20T11:52:46;0.60;;;0.47;;
3747;SDS011;1889;50.058;8.688;2022-08-20T11:55:15;0.50;;;0.50;;
3747;SDS011;1889;50.058;8.688;2022-08-20T11:57:45;0.40;;;0.40;;
3747;SDS011;1889;50.058;8.688;2022-08-20T12:00:18;0.80;;;0.70;;
3747;SDS011;1889;50.058;8.688;2022-08-20T12:02:48;1.67;;;0.60;;
3747;SDS011;1889;50.058;8.688;2022-08-20T12:05:18;0.30;;;0.30;;
3747;SDS011;1889;50.058;8.688;2022-08-20T12:07:47;0.50;;;0.50;;
3747;SDS011;1889;50.058;8.688;2022-08-20T12:10:16;0.43;;;0.30;;
3747;SDS011;1889;50.058;8.688;2022-08-20T12:12:45;0.47;;;0.40;;
3747;SDS011;1889;50.058;8.688;2022-08-20T12:15:14;3.07;;;0.60;;
3747;SDS011;1889;50.058;8.688;2022-08-20T12:17:43;0.40;;;0.40;;
3747;SDS011;1889;50.058;8.688;2022-08-20T12:20:13;0.30;;;0.30;;
3747;SDS011;1889;50.058;8.688;2022-08-20T12:22:43;0.30;;;0.30;;
3747;SDS011;1889;50.058;8.688;2022-08-20T12:25:12;0.40;;;0.40;;
3747;SDS011;1889;50.058;8.688;2022-08-20T12:27:42;0.53;;;0.37;;
3747;SDS011;1889;50.058;8.688;2022-08-20T12:30:17;0.37;;;0.37;;
3747;SDS011;1889;50.058;8.688;2022-08-20T12:32:43;1.70;;;0.33;;
3747;SDS011;1889;50.058;8.688;2022-08-20T12:35:13;0.37;;;0.37;;
3747;SDS011;1889;50.058;8.688;2022-08-20T12:37:44;1.10;;;0.47;;
3747;SDS011;1889;50.058;8.688;2022-08-20T12:40:15;0.37;;;0.30;;
3747;SDS011;1889;50.058;8.688;2022-08-20T12:42:51;0.63;;;0.33;;
3747;SDS011;1889;50.058;8.688;2022-08-20T12:45:21;0.40;;;0.40;;
3747;SDS011;1889;50.058;8.688;2022-08-20T12:47:50;3.30;;;0.60;;
3747;SDS011;1889;50.058;8.688;2022-08-20T12:50:20;2.67;;;0.50;;
3747;SDS011;1889;50.058;8.688;2022-08-20T12:52:51;0.20;;;0.20;;
3747;SDS011;1889;50.058;8.688;2022-08-20T12:55:20;1.60;;;0.20;;
3747;SDS011;1889;50.058;8.688;2022-08-20T12:57:50;0.30;;;0.30;;
3747;SDS011;1889;50.058;8.688;2022-08-20T13:00:28;3.70;;;0.50;;
3747;SDS011;1889;50.058;8.688;2022-08-20T13:02:55;0.50;;;0.50;;
3747;SDS011;1889;50.058;8.688;2022-08-20T13:05:25;1.30;;;0.40;;
3747;SDS011;1889;50.058;8.688;2022-08-20T13:07:55;0.50;;;0.50;;
3747;SDS011;1889;50.058;8.688;2022-08-20T13:10:29;1.50;;;0.60;;
3747;SDS011;1889;50.058;8.688;2022-08-20T13:12:59;0.53;;;0.53;;
3747;SDS011;1889;50.058;8.688;2022-08-20T13:15:30;2.20;;;0.40;;
3747;SDS011;1889;50.058;8.688;2022-08-20T13:18:01;0.43;;;0.43;;
3747;SDS011;1889;50.058;8.688;2022-08-20T13:20:31;0.80;;;0.60;;
3747;SDS011;1889;50.058;8.688;2022-08-20T13:23:01;0.70;;;0.60;;
3747;SDS011;1889;50.058;8.688;2022-08-20T13:25:33;0.70;;;0.70;;
3747;SDS011;1889;50.058;8.688;2022-08-20T13:28:02;0.77;;;0.77;;
3747;SDS011;1889;50.058;8.688;2022-08-20T13:30:33;1.13;;;1.03;;
3747;SDS011;1889;50.058;8.688;2022-08-20T13:33:04;1.13;;;1.07;;
3747;SDS011;1889;50.058;8.688;2022-08-20T13:35:33;1.80;;;1.10;;
3747;SDS011;1889;50.058;8.688;2022-08-20T13:38:03;1.10;;;1.00;;
3747;SDS011;1889;50.058;8.688;2022-08-20T13:40:32;1.20;;;1.10;;
3747;SDS011;1889;50.058;8.688;2022-08-20T13:43:07;1.17;;;1.07;;
3747;SDS011;1889;50.058;8.688;2022-08-20T13:45:31;0.93;;;0.93;;
3747;SDS011;1889;50.058;8.688;2022-08-20T13:48:00;1.23;;;1.13;;
3747;SDS011;1889;50.058;8.688;2022-08-20T13:50:30;3.40;;;1.00;;
3747;SDS011;1889;50.058;8.688;2022-08-20T13:52:59;0.80;;;0.80;;
3747;SDS011;1889;50.058;8.688;2022-08-20T13:55:29;2.10;;;1.30;;
3747;SDS011;1889;50.058;8.688;2022-08-20T13:58:02;1.10;;;1.00;;
3747;SDS011;1889;50.058;8.688;2022-08-20T14:00:32;1.83;;;1.10;;
3747;SDS011;1889;50.058;8.688;2022-08-20T14:03:03;2.60;;;1.10;;
3747;SDS011;1889;50.058;8.688;2022-08-20T14:05:33;2.13;;;1.30;;
3747;SDS011;1889;50.058;8.688;2022-08-20T14:08:07;1.40;;;1.30;;
3747;SDS011;1889;50.058;8.688;2022-08-20T14:10:37;1.53;;;1.43;;
3747;SDS011;1889;50.058;8.688;2022-08-20T14:13:07;1.50;;;1.40;;
3747;SDS011;1889;50.058;8.688;2022-08-20T14:15:37;1.90;;;1.47;;
3747;SDS011;1889;50.058;8.688;2022-08-20T14:18:07;1.33;;;1.23;;
3747;SDS011;1889;50.058;8.688;2022-08-20T14:20:36;1.70;;;1.60;;
3747;SDS011;1889;50.058;8.688;2022-08-20T14:23:05;2.63;;;1.40;;
3747;SDS011;1889;50.058;8.688;2022-08-20T14:25:34;1.93;;;1.60;;
3747;SDS011;1889;50.058;8.688;2022-08-20T14:28:08;1.53;;;1.43;;
3747;SDS011;1889;50.058;8.688;2022-08-20T14:30:38;6.23;;;2.27;;
3747;SDS011;1889;50.058;8.688;2022-08-20T14:33:08;2.13;;;1.60;;
3747;SDS011;1889;50.058;8.688;2022-08-20T14:35:37;3.37;;;1.93;;
3747;SDS011;1889;50.058;8.688;2022-08-20T14:38:08;1.73;;;1.63;;
3747;SDS011;1889;50.058;8.688;2022-08-20T14:40:37;1.80;;;1.70;;
3747;SDS011;1889;50.058;8.688;2022-08-20T14:43:06;1.70;;;1.43;;
3747;SDS011;1889;50.058;8.688;2022-08-20T14:45:35;2.30;;;1.40;;
3747;SDS011;1889;50.058;8.688;2022-08-20T14:48:05;1.97;;;1.87;;
3747;SDS011;1889;50.058;8.688;2022-08-20T14:50:36;1.70;;;1.60;;
3747;SDS011;1889;50.058;8.688;2022-08-20T14:53:05;1.87;;;1.77;;
3747;SDS011;1889;50.058;8.688;2022-08-20T14:55:35;2.00;;;1.77;;
3747;SDS011;1889;50.058;8.688;2022-08-20T14:58:08;2.13;;;2.00;;
3747;SDS011;1889;50.058;8.688;2022-08-20T15:00:39;2.47;;;1.77;;
3747;SDS011;1889;50.058;8.688;2022-08-20T15:03:09;2.77;;;1.90;;
3747;SDS011;1889;50.058;8.688;2022-08-20T15:05:39;2.17;;;2.03;;
3747;SDS011;1889;50.058;8.688;2022-08-20T15:08:08;3.70;;;2.53;;
3747;SDS011;1889;50.058;8.688;2022-08-20T15:10:38;2.77;;;1.97;;
3747;SDS011;1889;50.058;8.688;2022-08-20T15:13:09;3.40;;;2.07;;
3747;SDS011;1889;50.058;8.688;2022-08-20T15:15:38;3.87;;;2.40;;
3747;SDS011;1889;50.058;8.688;2022-08-20T15:18:07;2.50;;;2.30;;
3747;SDS011;1889;50.058;8.688;2022-08-20T15:20:36;2.67;;;2.03;;
3747;SDS011;1889;50.058;8.688;2022-08-20T15:23:05;2.03;;;1.67;;
3747;SDS011;1889;50.058;8.688;2022-08-20T15:25:34;1.97;;;1.80;;
3747;SDS011;1889;50.058;8.688;2022-08-20T15:28:05;1.60;;;1.50;;
3747;SDS011;1889;50.058;8.688;2022-08-20T15:30:37;5.33;;;1.90;;
3747;SDS011;1889;50.058;8.688;2022-08-20T15:33:07;2.80;;;1.70;;
3747;SDS011;1889;50.058;8.688;2022-08-20T15:35:37;2.40;;;1.50;;